createdAt,value
2019-03-23T00:00:49.255Z,41.69
2019-03-23T00:01:49.148Z,41.65
2019-03-23T00:02:49.300Z,41.68
2019-03-23T00:03:49.168Z,41.73
2019-03-23T00:04:49.163Z,41.69
2019-03-23T00:05:49.192Z,41.64
2019-03-23T00:06:49.284Z,41.69
2019-03-23T00:07:49.211Z,41.66
2019-03-23T00:08:49.300Z,41.69
2019-03-23T00:09:49.335Z,41.75
2019-03-23T00:10:49.352Z,41.7
2019-03-23T00:11:49.358Z,41.7
2019-03-23T00:12:49.274Z,41.72
2019-03-23T00:13:49.394Z,41.7
2019-03-23T00:14:49.383Z,41.71
2019-03-23T00:15:49.456Z,41.71
2019-03-23T00:16:49.412Z,41.72
2019-03-23T00:17:49.147Z,41.7
2019-03-23T00:18:49.209Z,41.68
2019-03-23T00:19:49.641Z,41.71
2019-03-23T00:20:49.188Z,41.71
2019-03-23T00:21:49.113Z,41.7
2019-03-23T00:22:49.177Z,41.75
2019-03-23T00:23:49.155Z,41.68
2019-03-23T00:24:49.333Z,41.71
2019-03-23T00:25:49.291Z,41.72
2019-03-23T00:26:49.238Z,41.72
2019-03-23T00:27:49.234Z,41.71
2019-03-23T00:28:49.364Z,41.72
2019-03-23T00:29:49.233Z,41.69
2019-03-23T00:30:49.317Z,41.73
2019-03-23T00:31:49.266Z,41.68
2019-03-23T00:32:49.276Z,41.71
2019-03-23T00:33:49.337Z,41.72
2019-03-23T00:34:49.305Z,41.73
2019-03-23T00:35:49.172Z,41.76
2019-03-23T00:36:49.155Z,41.75
2019-03-23T00:37:49.156Z,41.73
2019-03-23T00:38:49.208Z,41.75
2019-03-23T00:39:49.164Z,41.73
2019-03-23T00:40:49.254Z,41.73
2019-03-23T00:41:49.170Z,41.69
2019-03-23T00:42:49.171Z,41.73
2019-03-23T00:43:49.358Z,41.73
2019-03-23T00:44:49.232Z,41.75
2019-03-23T00:45:49.229Z,41.73
2019-03-23T00:46:49.346Z,41.72
2019-03-23T00:47:49.275Z,41.69
2019-03-23T00:48:49.278Z,41.73
2019-03-23T00:49:49.306Z,41.73
2019-03-23T00:50:49.340Z,41.74
2019-03-23T00:51:49.317Z,41.72
2019-03-23T00:52:49.432Z,41.7
2019-03-23T00:53:49.094Z,41.73
2019-03-23T00:54:49.121Z,41.72
2019-03-23T00:55:49.073Z,41.74
2019-03-23T00:56:49.087Z,41.74
2019-03-23T00:57:49.218Z,41.74
2019-03-23T00:58:49.099Z,41.72
2019-03-23T00:59:49.119Z,41.75
2019-03-23T01:00:49.242Z,41.75
2019-03-23T01:01:49.210Z,41.72
2019-03-23T01:02:49.313Z,41.74
2019-03-23T01:03:49.267Z,41.79
2019-03-23T01:04:49.314Z,41.74
2019-03-23T01:05:49.320Z,41.76
2019-03-23T01:06:52.744Z,41.73
2019-03-23T01:07:49.389Z,41.71
2019-03-23T01:08:49.234Z,41.69
2019-03-23T01:09:49.482Z,41.7
2019-03-23T01:10:49.353Z,41.77
2019-03-23T01:11:49.282Z,41.75
2019-03-23T01:12:49.101Z,41.74
2019-03-23T01:13:49.105Z,41.74
2019-03-23T01:14:49.237Z,41.75
2019-03-23T01:15:49.234Z,41.76
2019-03-23T01:16:49.209Z,41.77
2019-03-23T01:17:49.141Z,41.77
2019-03-23T01:18:49.214Z,41.73
2019-03-23T01:19:49.333Z,41.74
2019-03-23T01:20:50.310Z,41.74
2019-03-23T01:21:49.213Z,41.72
2019-03-23T01:22:49.210Z,41.72
2019-03-23T01:23:49.265Z,41.74
2019-03-23T01:24:49.468Z,41.77
2019-03-23T01:25:49.333Z,41.77
2019-03-23T01:26:49.280Z,41.77
2019-03-23T01:27:49.402Z,41.75
2019-03-23T01:28:49.382Z,41.74
2019-03-23T01:29:49.368Z,41.73
2019-03-23T01:30:49.327Z,41.72
2019-03-23T01:31:49.417Z,41.76
2019-03-23T01:32:49.059Z,41.76
2019-03-23T01:33:49.215Z,41.75
2019-03-23T01:34:49.098Z,41.78
2019-03-23T01:35:49.097Z,41.74
2019-03-23T01:36:49.209Z,41.77
2019-03-23T01:37:49.190Z,41.77
2019-03-23T01:38:49.129Z,41.78
2019-03-23T01:39:49.167Z,41.78
2019-03-23T01:40:49.180Z,41.81
2019-03-23T01:41:49.173Z,41.77
2019-03-23T01:42:50.325Z,41.73
2019-03-23T01:43:49.269Z,41.78
2019-03-23T01:44:49.351Z,41.75
2019-03-23T01:45:49.211Z,41.77
2019-03-23T01:46:49.264Z,41.75
2019-03-23T01:47:49.465Z,41.77
2019-03-23T01:48:49.271Z,41.78
2019-03-23T01:49:49.293Z,41.77
2019-03-23T01:50:49.076Z,41.77
2019-03-23T01:51:49.065Z,41.77
2019-03-23T01:52:49.088Z,41.77
2019-03-23T01:53:49.122Z,41.79
2019-03-23T01:54:49.135Z,41.75
2019-03-23T01:55:49.139Z,41.78
2019-03-23T01:56:49.161Z,41.81
2019-03-23T01:57:49.179Z,41.77
2019-03-23T01:58:49.193Z,41.78
2019-03-23T01:59:49.211Z,41.79
2019-03-23T02:00:49.300Z,41.83
2019-03-23T02:01:49.252Z,41.8
2019-03-23T02:02:49.227Z,41.79
2019-03-23T02:03:49.347Z,41.83
2019-03-23T02:04:49.258Z,41.78
2019-03-23T02:05:49.373Z,41.82
2019-03-23T02:06:49.446Z,41.79
2019-03-23T02:07:49.423Z,41.76
2019-03-23T02:08:49.305Z,41.82
2019-03-23T02:09:49.082Z,41.79
2019-03-23T02:10:49.044Z,41.77
2019-03-23T02:11:49.260Z,41.77
2019-03-23T02:12:49.121Z,41.78
2019-03-23T02:13:49.305Z,41.77
2019-03-23T02:14:49.176Z,41.83
2019-03-23T02:15:49.142Z,41.76
2019-03-23T02:16:49.289Z,41.79
2019-03-23T02:17:49.200Z,41.79
2019-03-23T02:18:49.281Z,41.81
2019-03-23T02:19:49.179Z,41.79
2019-03-23T02:20:49.361Z,41.76
2019-03-23T02:21:49.214Z,41.79
2019-03-23T02:22:49.295Z,41.84
2019-03-23T02:23:49.223Z,41.8
2019-03-23T02:24:49.369Z,41.84
2019-03-23T02:25:49.276Z,41.8
2019-03-23T02:26:49.073Z,41.8
2019-03-23T02:27:49.158Z,41.81
2019-03-23T02:28:49.157Z,41.8
2019-03-23T02:29:49.176Z,41.81
2019-03-23T02:30:49.244Z,41.78
2019-03-23T02:31:49.307Z,41.78
2019-03-23T02:32:49.206Z,41.81
2019-03-23T02:33:49.159Z,41.82
2019-03-23T02:34:49.209Z,41.82
2019-03-23T02:35:49.203Z,41.81
2019-03-23T02:36:49.261Z,41.83
2019-03-23T02:37:49.384Z,41.86
2019-03-23T02:38:49.210Z,41.81
2019-03-23T02:39:49.225Z,41.81
2019-03-23T02:40:49.336Z,41.82
2019-03-23T02:41:49.375Z,41.81
2019-03-23T02:42:49.444Z,41.82
2019-03-23T02:43:49.508Z,41.8
2019-03-23T02:44:49.444Z,41.87
2019-03-23T02:45:49.079Z,41.86
2019-03-23T02:46:49.084Z,41.83
2019-03-23T02:47:49.096Z,41.8
2019-03-23T02:48:49.083Z,41.82
2019-03-23T02:49:49.648Z,41.82
2019-03-23T02:50:49.798Z,41.81
2019-03-23T02:51:49.299Z,41.83
2019-03-23T02:52:49.349Z,41.84
2019-03-23T02:53:49.266Z,41.85
2019-03-23T02:54:49.295Z,41.77
2019-03-23T02:55:49.186Z,41.82
2019-03-23T02:56:49.359Z,41.82
2019-03-23T02:57:49.201Z,41.8
2019-03-23T02:58:49.351Z,41.83
2019-03-23T02:59:49.347Z,41.77
2019-03-23T03:00:49.357Z,41.77
2019-03-23T03:01:49.302Z,41.81
2019-03-23T03:02:49.270Z,41.79
2019-03-23T03:03:49.138Z,41.79
2019-03-23T03:04:49.162Z,41.79
2019-03-23T03:05:49.186Z,41.82
2019-03-23T03:06:49.237Z,41.82
2019-03-23T03:07:49.143Z,41.84
2019-03-23T03:08:49.226Z,41.84
2019-03-23T03:09:49.363Z,41.84
2019-03-23T03:10:49.207Z,41.83
2019-03-23T03:11:49.471Z,41.79
2019-03-23T03:12:49.190Z,41.82
2019-03-23T03:13:49.263Z,41.82
2019-03-23T03:14:49.320Z,41.84
2019-03-23T03:15:49.328Z,41.83
2019-03-23T03:16:49.398Z,41.83
2019-03-23T03:17:49.249Z,41.83
2019-03-23T03:18:49.277Z,41.8
2019-03-23T03:19:49.254Z,41.82
2019-03-23T03:20:49.322Z,41.88
2019-03-23T03:21:49.402Z,41.82
2019-03-23T03:22:49.148Z,41.8
2019-03-23T03:23:49.118Z,41.81
2019-03-23T03:24:49.172Z,41.8
2019-03-23T03:25:49.177Z,41.84
2019-03-23T03:26:49.294Z,41.8
2019-03-23T03:27:49.080Z,41.84
2019-03-23T03:28:49.408Z,41.79
2019-03-23T03:29:49.144Z,41.85
2019-03-23T03:30:49.346Z,41.83
2019-03-23T03:31:49.192Z,41.81
2019-03-23T03:32:49.218Z,41.81
2019-03-23T03:33:49.495Z,41.8
2019-03-23T03:34:49.751Z,41.82
2019-03-23T03:35:49.252Z,41.87
2019-03-23T03:36:49.439Z,41.81
2019-03-23T03:37:57.621Z,41.81
2019-03-23T03:38:49.291Z,41.82
2019-03-23T03:39:49.148Z,41.85
2019-03-23T03:40:49.099Z,41.79
2019-03-23T03:41:49.043Z,41.82
2019-03-23T03:42:49.225Z,41.85
2019-03-23T03:43:49.260Z,41.82
2019-03-23T03:44:49.192Z,41.8
2019-03-23T03:45:49.202Z,41.81
2019-03-23T03:46:49.143Z,41.84
2019-03-23T03:47:49.263Z,41.85
2019-03-23T03:48:49.601Z,41.82
2019-03-23T03:49:49.314Z,41.8
2019-03-23T03:50:49.274Z,41.83
2019-03-23T03:51:49.328Z,41.83
2019-03-23T03:52:49.385Z,41.81
2019-03-23T03:53:49.380Z,41.81
2019-03-23T03:54:49.376Z,41.8
2019-03-23T03:55:49.567Z,41.75
2019-03-23T03:56:51.186Z,41.78
2019-03-23T03:57:49.259Z,41.79
2019-03-23T03:58:49.124Z,41.8
2019-03-23T03:59:49.058Z,41.83
2019-03-23T04:00:49.364Z,41.83
2019-03-23T04:01:49.150Z,41.83
2019-03-23T04:02:49.163Z,41.85
2019-03-23T04:03:49.235Z,41.81
2019-03-23T04:04:49.120Z,41.82
2019-03-23T04:05:49.472Z,41.81
2019-03-23T04:06:49.350Z,41.85
2019-03-23T04:07:49.257Z,41.84
2019-03-23T04:08:49.363Z,41.82
2019-03-23T04:09:49.488Z,41.82
2019-03-23T04:10:49.208Z,41.79
2019-03-23T04:11:49.287Z,41.79
2019-03-23T04:12:49.286Z,41.77
2019-03-23T04:13:49.314Z,41.83
2019-03-23T04:14:49.239Z,41.78
2019-03-23T04:15:49.113Z,41.83
2019-03-23T04:16:49.138Z,41.79
2019-03-23T04:17:49.185Z,41.82
2019-03-23T04:18:49.215Z,41.78
2019-03-23T04:19:49.235Z,41.83
2019-03-23T04:20:49.154Z,41.82
2019-03-23T04:21:49.452Z,41.82
2019-03-23T04:22:49.162Z,41.81
2019-03-23T04:23:49.318Z,41.83
2019-03-23T04:24:49.280Z,41.82
2019-03-23T04:25:49.379Z,41.8
2019-03-23T04:26:49.350Z,41.84
2019-03-23T04:27:49.478Z,41.86
2019-03-23T04:28:49.206Z,41.84
2019-03-23T04:29:49.361Z,41.86
2019-03-23T04:30:49.376Z,41.86
2019-03-23T04:31:49.254Z,41.84
2019-03-23T04:32:49.367Z,41.84
2019-03-23T04:33:49.049Z,41.87
2019-03-23T04:34:49.072Z,41.89
2019-03-23T04:35:49.065Z,41.87
2019-03-23T04:36:49.152Z,41.82
2019-03-23T04:37:49.062Z,41.81
2019-03-23T04:38:49.054Z,41.81
2019-03-23T04:39:49.664Z,41.79
2019-03-23T04:40:49.237Z,41.82
2019-03-23T04:41:49.173Z,41.83
2019-03-23T04:42:49.180Z,41.8
2019-03-23T04:43:49.282Z,41.82
2019-03-23T04:44:49.121Z,41.78
2019-03-23T04:45:49.286Z,41.73
2019-03-23T04:46:49.187Z,41.75
2019-03-23T04:47:49.167Z,41.78
2019-03-23T04:48:49.240Z,41.74
2019-03-23T04:49:49.195Z,41.69
2019-03-23T04:50:49.201Z,41.75
2019-03-23T04:51:49.163Z,41.71
2019-03-23T04:52:49.069Z,41.75
2019-03-23T04:53:49.060Z,41.7
2019-03-23T04:54:49.146Z,41.73
2019-03-23T04:55:49.137Z,41.67
2019-03-23T04:56:49.129Z,41.61
2019-03-23T04:57:49.194Z,41.65
2019-03-23T04:58:49.228Z,41.59
2019-03-23T04:59:49.217Z,41.6
2019-03-23T05:00:49.791Z,41.59
2019-03-23T05:01:49.240Z,41.6
2019-03-23T05:02:49.260Z,41.55
2019-03-23T05:03:49.339Z,41.55
2019-03-23T05:04:49.278Z,41.49
2019-03-23T05:05:49.290Z,41.5
2019-03-23T05:06:49.323Z,41.48
2019-03-23T05:07:49.214Z,41.49
2019-03-23T05:08:49.352Z,41.48
2019-03-23T05:09:49.004Z,41.49
2019-03-23T05:10:49.228Z,41.58
2019-03-23T05:11:49.033Z,41.46
2019-03-23T05:12:49.174Z,41.45
2019-03-23T05:13:49.201Z,41.46
2019-03-23T05:14:49.240Z,41.44
2019-03-23T05:15:49.064Z,41.46
2019-03-23T05:16:49.220Z,41.43
2019-03-23T05:17:49.158Z,41.47
2019-03-23T05:18:49.137Z,41.42
2019-03-23T05:19:49.162Z,41.47
2019-03-23T05:20:49.120Z,41.43
2019-03-23T05:21:49.200Z,41.45
2019-03-23T05:22:49.149Z,41.44
2019-03-23T05:23:49.345Z,41.44
2019-03-23T05:24:49.203Z,41.44
2019-03-23T05:25:49.184Z,41.45
2019-03-23T05:26:50.320Z,41.44
2019-03-23T05:27:49.397Z,41.48
2019-03-23T05:28:49.129Z,41.44
2019-03-23T05:29:49.142Z,41.46
2019-03-23T05:30:49.314Z,41.45
2019-03-23T05:31:49.162Z,41.44
2019-03-23T05:32:49.168Z,41.41
2019-03-23T05:33:49.208Z,41.38
2019-03-23T05:34:49.147Z,41.39
2019-03-23T05:35:49.196Z,41.39
2019-03-23T05:36:49.118Z,41.47
2019-03-23T05:37:49.185Z,41.46
2019-03-23T05:38:49.295Z,41.42
2019-03-23T05:39:49.248Z,41.41
2019-03-23T05:40:49.230Z,41.44
2019-03-23T05:41:49.272Z,41.4
2019-03-23T05:42:49.314Z,41.38
2019-03-23T05:43:49.897Z,41.37
2019-03-23T05:44:49.296Z,41.44
2019-03-23T05:45:49.124Z,41.37
2019-03-23T05:46:49.114Z,41.37
2019-03-23T05:47:49.030Z,41.36
2019-03-23T05:48:49.025Z,41.39
2019-03-23T05:49:49.197Z,41.36
2019-03-23T05:50:49.166Z,41.36
2019-03-23T05:51:49.079Z,41.36
2019-03-23T05:52:49.129Z,41.36
2019-03-23T05:53:49.201Z,41.34
2019-03-23T05:54:49.234Z,41.35
2019-03-23T05:55:49.168Z,41.32
2019-03-23T05:56:49.256Z,41.37
2019-03-23T05:57:49.242Z,41.36
2019-03-23T05:58:49.173Z,41.39
2019-03-23T05:59:49.243Z,41.37
2019-03-23T06:00:49.335Z,41.33
2019-03-23T06:01:49.277Z,41.33
2019-03-23T06:02:49.366Z,41.36
2019-03-23T06:03:48.991Z,41.37
2019-03-23T06:04:48.990Z,41.36
2019-03-23T06:05:49.032Z,41.36
2019-03-23T06:06:49.928Z,41.37
2019-03-23T06:07:49.149Z,41.35
2019-03-23T06:08:55.785Z,41.4
2019-03-23T06:09:49.215Z,41.34
2019-03-23T06:10:49.173Z,41.35
2019-03-23T06:11:49.425Z,41.33
2019-03-23T06:12:49.153Z,41.32
2019-03-23T06:13:49.326Z,41.31
2019-03-23T06:14:49.322Z,41.35
2019-03-23T06:15:49.282Z,41.34
2019-03-23T06:16:49.694Z,41.34
2019-03-23T06:17:49.256Z,41.29
2019-03-23T06:18:49.438Z,41.31
2019-03-23T06:19:49.331Z,41.28
2019-03-23T06:20:49.067Z,41.29
2019-03-23T06:21:49.128Z,41.27
2019-03-23T06:22:49.361Z,41.26
2019-03-23T06:23:49.254Z,41.27
2019-03-23T06:24:49.085Z,41.22
2019-03-23T06:25:49.036Z,41.28
2019-03-23T06:26:49.082Z,41.28
2019-03-23T06:27:49.741Z,41.27
2019-03-23T06:28:49.088Z,41.28
2019-03-23T06:29:49.188Z,41.32
2019-03-23T06:30:49.250Z,41.29
2019-03-23T06:31:49.270Z,41.29
2019-03-23T06:32:49.192Z,41.33
2019-03-23T06:33:49.262Z,41.33
2019-03-23T06:34:49.251Z,41.31
2019-03-23T06:35:49.197Z,41.27
2019-03-23T06:36:49.317Z,41.32
2019-03-23T06:37:49.589Z,41.32
2019-03-23T06:38:49.021Z,41.32
2019-03-23T06:39:49.155Z,41.34
2019-03-23T06:40:49.016Z,41.3
2019-03-23T06:41:49.001Z,41.32
2019-03-23T06:43:00.299Z,41.36
2019-03-23T06:43:49.344Z,41.38
2019-03-23T06:44:49.136Z,41.37
2019-03-23T06:45:49.164Z,41.32
2019-03-23T06:46:49.171Z,41.33
2019-03-23T06:47:49.144Z,41.35
2019-03-23T06:48:49.133Z,41.34
2019-03-23T06:49:49.898Z,41.35
2019-03-23T06:50:49.242Z,41.38
2019-03-23T06:51:49.240Z,41.38
2019-03-23T06:52:49.175Z,41.42
2019-03-23T06:53:49.258Z,41.39
2019-03-23T06:54:49.534Z,41.38
2019-03-23T06:55:49.512Z,41.36
2019-03-23T06:56:48.889Z,41.38
2019-03-23T06:57:49.057Z,41.39
2019-03-23T06:58:48.938Z,41.43
2019-03-23T06:59:49.168Z,41.4
2019-03-23T07:00:49.238Z,41.43
2019-03-23T07:01:49.338Z,41.45
2019-03-23T07:02:49.100Z,41.43
2019-03-23T07:03:49.122Z,41.41
2019-03-23T07:04:49.224Z,41.47
2019-03-23T07:05:49.231Z,41.44
2019-03-23T07:06:49.227Z,41.43
2019-03-23T07:07:49.254Z,41.44
2019-03-23T07:08:49.260Z,41.47
2019-03-23T07:09:49.311Z,41.45
2019-03-23T07:10:49.598Z,41.45
2019-03-23T07:11:49.294Z,41.48
2019-03-23T07:12:49.278Z,41.43
2019-03-23T07:13:49.268Z,41.43
2019-03-23T07:14:48.972Z,41.47
2019-03-23T07:15:49.003Z,41.45
2019-03-23T07:16:49.015Z,41.44
2019-03-23T07:17:49.021Z,41.41
2019-03-23T07:18:49.126Z,41.43
2019-03-23T07:19:49.145Z,41.48
2019-03-23T07:20:49.303Z,41.43
2019-03-23T07:21:49.238Z,41.47
2019-03-23T07:22:49.179Z,41.5
2019-03-23T07:23:49.192Z,41.46
2019-03-23T07:24:49.196Z,41.5
2019-03-23T07:25:49.149Z,41.5
2019-03-23T07:26:49.432Z,41.48
2019-03-23T07:27:49.378Z,41.48
2019-03-23T07:28:49.269Z,41.51
2019-03-23T07:29:49.169Z,41.5
2019-03-23T07:30:49.255Z,41.48
2019-03-23T07:31:49.286Z,41.5
2019-03-23T07:32:50.100Z,41.5
2019-03-23T07:33:49.111Z,41.48
2019-03-23T07:34:49.014Z,41.5
2019-03-23T07:35:49.135Z,41.48
2019-03-23T07:36:49.112Z,41.51
2019-03-23T07:37:49.175Z,41.44
2019-03-23T07:38:49.178Z,41.46
2019-03-23T07:39:49.278Z,41.46
2019-03-23T07:40:49.162Z,41.47
2019-03-23T07:41:49.479Z,41.51
2019-03-23T07:42:49.065Z,41.51
2019-03-23T07:43:49.102Z,41.52
2019-03-23T07:44:49.208Z,41.51
2019-03-23T07:45:49.116Z,41.51
2019-03-23T07:46:49.301Z,41.48
2019-03-23T07:47:49.257Z,41.52
2019-03-23T07:48:49.297Z,41.48
2019-03-23T07:49:49.066Z,41.46
2019-03-23T07:50:49.047Z,41.47
2019-03-23T07:51:49.166Z,41.5
2019-03-23T07:52:49.043Z,41.46
2019-03-23T07:53:49.003Z,41.48
2019-03-23T07:54:49.076Z,41.48
2019-03-23T07:55:49.062Z,41.47
2019-03-23T07:56:49.059Z,41.47
2019-03-23T07:57:49.058Z,41.47
2019-03-23T07:58:49.087Z,41.47
2019-03-23T07:59:49.162Z,41.73
2019-03-23T08:00:49.360Z,41.12
2019-03-23T08:01:49.289Z,40.76
2019-03-23T08:02:49.288Z,40.58
2019-03-23T08:03:49.134Z,40.91
2019-03-23T08:04:49.134Z,40.93
2019-03-23T08:05:49.265Z,41.02
2019-03-23T08:06:49.007Z,41.16
2019-03-23T08:07:49.024Z,41.19
2019-03-23T08:08:49.025Z,41.27
2019-03-23T08:09:48.971Z,41.26
2019-03-23T08:10:49.242Z,41.28
2019-03-23T08:11:49.197Z,41.33
2019-03-23T08:12:48.990Z,41.37
2019-03-23T08:13:49.009Z,41.41
2019-03-23T08:14:49.184Z,41.34
2019-03-23T08:15:49.129Z,41.36
2019-03-23T08:16:48.950Z,41.38
2019-03-23T08:17:49.057Z,41.34
2019-03-23T08:18:49.052Z,41.34
2019-03-23T08:19:49.207Z,41.35
2019-03-23T08:20:49.126Z,41.36
2019-03-23T08:21:49.265Z,41.37
2019-03-23T08:22:49.201Z,41.42
2019-03-23T08:23:49.290Z,41.38
2019-03-23T08:24:48.906Z,41.38
2019-03-23T08:25:48.954Z,41.36
2019-03-23T08:26:49.024Z,41.35
2019-03-23T08:27:49.046Z,41.4
2019-03-23T08:28:49.290Z,41.38
2019-03-23T08:29:49.125Z,41.38
2019-03-23T08:30:49.083Z,41.35
2019-03-23T08:31:49.027Z,41.33
2019-03-23T08:32:49.160Z,41.33
2019-03-23T08:33:49.033Z,41.27
2019-03-23T08:34:49.034Z,41.28
2019-03-23T08:35:49.090Z,41.31
2019-03-23T08:36:49.092Z,41.23
2019-03-23T08:37:49.407Z,41.23
2019-03-23T08:38:49.105Z,41.22
2019-03-23T08:39:49.316Z,41.23
2019-03-23T08:40:49.216Z,41.22
2019-03-23T08:41:49.364Z,41.26
2019-03-23T08:42:49.125Z,41.21
2019-03-23T08:43:48.920Z,41.23
2019-03-23T08:44:48.897Z,41.17
2019-03-23T08:45:48.912Z,41.18
2019-03-23T08:46:48.996Z,41.13
2019-03-23T08:47:48.904Z,41.17
2019-03-23T08:48:48.953Z,41.14
2019-03-23T08:49:49.036Z,41.16
2019-03-23T08:50:49.017Z,41.13
2019-03-23T08:51:49.156Z,41.18
2019-03-23T08:52:49.050Z,41.18
2019-03-23T08:53:49.029Z,41.17
2019-03-23T08:54:49.141Z,41.27
2019-03-23T08:55:49.109Z,41.52
2019-03-23T08:56:49.148Z,41.64
2019-03-23T08:57:49.062Z,41.55
2019-03-23T08:58:50.218Z,41.6
2019-03-23T08:59:49.267Z,41.83
2019-03-23T09:00:49.270Z,41.66
2019-03-23T09:01:48.905Z,41.71
2019-03-23T09:02:48.968Z,41.72
2019-03-23T09:03:53.076Z,41.76
2019-03-23T09:04:49.040Z,41.75
2019-03-23T09:05:48.986Z,41.99
2019-03-23T09:06:49.110Z,41.85
2019-03-23T09:07:49.094Z,41.91
2019-03-23T09:08:49.164Z,41.91
2019-03-23T09:09:59.753Z,42.03
2019-03-23T09:10:49.102Z,41.97
2019-03-23T09:11:49.174Z,41.84
2019-03-23T09:12:49.210Z,41.85
2019-03-23T09:13:49.208Z,41.8
2019-03-23T09:14:49.108Z,41.79
2019-03-23T09:15:49.211Z,41.91
2019-03-23T09:16:49.192Z,41.92
2019-03-23T09:17:49.197Z,41.9
2019-03-23T09:18:49.155Z,41.86
2019-03-23T09:19:50.049Z,41.84
2019-03-23T09:20:50.078Z,41.95
2019-03-23T09:21:49.051Z,41.95
2019-03-23T09:22:48.970Z,41.92
2019-03-23T09:23:48.928Z,41.95
2019-03-23T09:24:48.999Z,41.91
2019-03-23T09:25:49.009Z,41.87
2019-03-23T09:26:49.454Z,42
2019-03-23T09:27:49.147Z,41.86
2019-03-23T09:28:49.082Z,42.09
2019-03-23T09:29:49.030Z,41.92
2019-03-23T09:30:49.035Z,41.9
2019-03-23T09:31:49.086Z,42
2019-03-23T09:32:49.255Z,41.9
2019-03-23T09:33:49.123Z,41.89
2019-03-23T09:34:49.087Z,41.92
2019-03-23T09:35:49.083Z,42.05
2019-03-23T09:36:49.143Z,41.97
2019-03-23T09:37:49.027Z,41.9
2019-03-23T09:38:48.921Z,41.88
2019-03-23T09:39:48.917Z,41.88
2019-03-23T09:40:49.019Z,41.84
2019-03-23T09:41:49.065Z,41.86
2019-03-23T09:42:49.145Z,41.93
2019-03-23T09:43:49.395Z,41.98
2019-03-23T09:44:49.089Z,42.06
2019-03-23T09:45:49.038Z,42.1
2019-03-23T09:46:49.108Z,41.98
2019-03-23T09:47:49.066Z,41.96
2019-03-23T09:48:49.052Z,42.03
2019-03-23T09:49:49.318Z,42.12
2019-03-23T09:50:49.046Z,41.94
2019-03-23T09:51:49.098Z,41.99
2019-03-23T09:52:49.108Z,41.92
2019-03-23T09:53:49.123Z,42.06
2019-03-23T09:54:48.968Z,42.2
2019-03-23T09:55:49.122Z,42.22
2019-03-23T09:56:48.985Z,42.02
2019-03-23T09:57:48.975Z,42.11
2019-03-23T09:58:49.199Z,42.57
2019-03-23T09:59:49.053Z,41.99
2019-03-23T10:00:49.023Z,41.83
2019-03-23T10:01:49.169Z,41.77
2019-03-23T10:02:49.010Z,41.76
2019-03-23T10:03:49.069Z,41.71
2019-03-23T10:04:48.903Z,41.75
2019-03-23T10:05:49.208Z,41.71
2019-03-23T10:06:49.086Z,41.61
2019-03-23T10:07:49.164Z,41.58
2019-03-23T10:08:49.154Z,41.56
2019-03-23T10:09:49.129Z,41.68
2019-03-23T10:10:48.954Z,41.5
2019-03-23T10:11:48.916Z,41.52
2019-03-23T10:12:49.070Z,41.51
2019-03-23T10:13:49.077Z,41.48
2019-03-23T10:14:48.968Z,41.54
2019-03-23T10:15:48.986Z,41.5
2019-03-23T10:16:49.037Z,41.58
2019-03-23T10:17:49.120Z,41.52
2019-03-23T10:18:48.988Z,41.58
2019-03-23T10:19:49.096Z,41.55
2019-03-23T10:20:49.340Z,41.52
2019-03-23T10:21:50.993Z,41.54
2019-03-23T10:22:49.104Z,41.54
2019-03-23T10:23:49.392Z,41.5
2019-03-23T10:24:49.150Z,41.52
2019-03-23T10:25:49.134Z,41.54
2019-03-23T10:26:48.921Z,41.5
2019-03-23T10:27:48.888Z,41.53
2019-03-23T10:28:49.094Z,41.5
2019-03-23T10:29:48.987Z,41.52
2019-03-23T10:30:48.941Z,41.5
2019-03-23T10:31:49.153Z,41.51
2019-03-23T10:32:48.953Z,41.5
2019-03-23T10:33:49.081Z,41.52
2019-03-23T10:34:49.127Z,41.48
2019-03-23T10:35:49.005Z,41.5
2019-03-23T10:36:49.131Z,41.48
2019-03-23T10:37:49.074Z,41.69
2019-03-23T10:38:49.118Z,41.64
2019-03-23T10:39:49.081Z,41.61
2019-03-23T10:40:48.887Z,41.61
2019-03-23T10:41:49.195Z,41.6
2019-03-23T10:42:48.995Z,41.6
2019-03-23T10:43:48.944Z,41.59
2019-03-23T10:44:49.093Z,41.6
2019-03-23T10:45:48.965Z,41.54
2019-03-23T10:46:48.993Z,41.56
2019-03-23T10:47:50.593Z,41.55
2019-03-23T10:48:48.932Z,41.56
2019-03-23T10:49:49.000Z,41.55
2019-03-23T10:50:49.118Z,41.53
2019-03-23T10:51:49.139Z,41.52
2019-03-23T10:52:49.072Z,41.52
2019-03-23T10:53:49.201Z,41.54
2019-03-23T10:54:49.118Z,41.54
2019-03-23T10:55:49.133Z,41.49
2019-03-23T10:56:48.881Z,41.56
2019-03-23T10:57:49.272Z,41.77
2019-03-23T10:58:48.888Z,42.12
2019-03-23T10:59:48.884Z,42.5
2019-03-23T11:00:49.198Z,42.39
2019-03-23T11:01:48.909Z,42.96
2019-03-23T11:02:48.923Z,42.61
2019-03-23T11:03:48.969Z,42.68
2019-03-23T11:04:49.265Z,42.39
2019-03-23T11:05:48.994Z,42.3
2019-03-23T11:06:48.911Z,42.43
2019-03-23T11:07:49.029Z,42.42
2019-03-23T11:08:49.008Z,42.27
2019-03-23T11:09:49.046Z,42.51
2019-03-23T11:10:49.118Z,42.28
2019-03-23T11:11:49.119Z,42.37
2019-03-23T11:12:49.811Z,42.84
2019-03-23T11:13:49.093Z,42.79
2019-03-23T11:14:48.891Z,42.78
2019-03-23T11:15:48.971Z,42.62
2019-03-23T11:16:48.986Z,42.98
2019-03-23T11:17:49.208Z,42.74
2019-03-23T11:18:49.004Z,43.07
2019-03-23T11:19:49.072Z,43.62
2019-03-23T11:20:48.855Z,42.72
2019-03-23T11:21:49.132Z,42.69
2019-03-23T11:22:49.044Z,42.85
2019-03-23T11:23:49.251Z,42.81
2019-03-23T11:24:49.146Z,43.27
2019-03-23T11:25:49.356Z,42.96
2019-03-23T11:26:49.322Z,42.98
2019-03-23T11:27:49.079Z,43.05
2019-03-23T11:28:49.115Z,42.83
2019-03-23T11:29:49.146Z,42.8
2019-03-23T11:30:48.858Z,42.98
2019-03-23T11:31:48.987Z,42.83
2019-03-23T11:32:48.916Z,42.85
2019-03-23T11:33:48.994Z,42.76
2019-03-23T11:34:48.938Z,42.87
2019-03-23T11:35:58.435Z,42.61
2019-03-23T11:36:49.168Z,43.05
2019-03-23T11:37:51.596Z,42.65
2019-03-23T11:38:48.989Z,42.73
2019-03-23T11:39:49.147Z,42.62
2019-03-23T11:40:55.636Z,43
2019-03-23T11:41:48.994Z,43.32
2019-03-23T11:42:50.840Z,42.82
2019-03-23T11:43:49.049Z,42.62
2019-03-23T11:44:50.392Z,42.76
2019-03-23T11:45:49.579Z,42.17
2019-03-23T11:46:49.267Z,42.09
2019-03-23T11:47:49.169Z,42.13
2019-03-23T11:48:48.975Z,42.1
2019-03-23T11:49:48.913Z,42.01
2019-03-23T11:50:49.010Z,42.02
2019-03-23T11:51:49.043Z,42.06
2019-03-23T11:52:48.959Z,41.85
2019-03-23T11:53:48.977Z,41.95
2019-03-23T11:54:49.007Z,41.98
2019-03-23T11:55:49.011Z,41.9
2019-03-23T11:56:49.275Z,41.96
2019-03-23T11:57:49.140Z,41.87
2019-03-23T11:58:48.911Z,41.84
2019-03-23T11:59:49.146Z,41.84
2019-03-23T12:00:49.214Z,41.9
2019-03-23T12:01:52.483Z,41.96
2019-03-23T12:02:48.937Z,41.89
2019-03-23T12:03:48.877Z,42
2019-03-23T12:04:48.977Z,41.96
2019-03-23T12:05:49.064Z,41.96
2019-03-23T12:06:48.874Z,41.99
2019-03-23T12:07:48.978Z,41.96
2019-03-23T12:08:49.500Z,41.89
2019-03-23T12:09:48.981Z,41.89
2019-03-23T12:10:48.994Z,41.88
2019-03-23T12:11:49.136Z,41.85
2019-03-23T12:12:49.147Z,41.85
2019-03-23T12:13:49.182Z,41.89
2019-03-23T12:14:49.057Z,41.9
2019-03-23T12:15:49.154Z,41.86
2019-03-23T12:16:49.016Z,41.81
2019-03-23T12:17:48.961Z,41.77
2019-03-23T12:18:48.985Z,41.77
2019-03-23T12:19:48.998Z,41.84
2019-03-23T12:20:49.092Z,41.78
2019-03-23T12:21:51.128Z,41.82
2019-03-23T12:22:48.833Z,41.77
2019-03-23T12:23:48.937Z,41.8
2019-03-23T12:24:49.043Z,41.76
2019-03-23T12:25:48.984Z,41.7
2019-03-23T12:26:49.004Z,41.76
2019-03-23T12:27:49.063Z,41.72
2019-03-23T12:28:49.162Z,41.74
2019-03-23T12:29:49.129Z,41.77
2019-03-23T12:30:48.868Z,41.75
2019-03-23T12:31:48.962Z,41.78
2019-03-23T12:32:49.274Z,41.75
2019-03-23T12:33:48.934Z,41.79
2019-03-23T12:34:48.846Z,41.77
2019-03-23T12:35:48.871Z,41.7
2019-03-23T12:36:48.896Z,41.74
2019-03-23T12:37:48.851Z,41.74
2019-03-23T12:38:48.917Z,41.69
2019-03-23T12:39:48.914Z,41.69
2019-03-23T12:40:49.050Z,41.7
2019-03-23T12:41:49.096Z,41.69
2019-03-23T12:42:49.046Z,41.69
2019-03-23T12:43:49.018Z,41.67
2019-03-23T12:44:49.014Z,41.63
2019-03-23T12:45:48.996Z,41.66
2019-03-23T12:46:49.216Z,41.66
2019-03-23T12:47:49.098Z,41.61
2019-03-23T12:48:49.125Z,41.65
2019-03-23T12:49:49.071Z,41.65
2019-03-23T12:50:48.958Z,41.7
2019-03-23T12:51:53.280Z,41.65
2019-03-23T12:52:49.330Z,41.67
2019-03-23T12:53:48.925Z,41.66
2019-03-23T12:54:49.027Z,41.58
2019-03-23T12:55:49.040Z,41.62